Time;durP1;ratioP1;P1;durP2;ratioP2;P2;SDS_P1;SDS_P2;PMS_P1;PMS_P2;Temp;Humidity;BMP_temperature;BMP_pressure;BME280_temperature;BME280_humidity;BME280_pressure;Samples;Min_cycle;Max_cycle;Signal;HPM_P1;HPM_P2
2022/04/08 00:02:05;;;;;;;17.45;2.60;;;;;;;5.51;86.06;99717.97;5071360;28;20059;-82
2022/04/08 00:04:32;;;;;;;12.85;2.40;;;;;;;5.53;86.23;99729.13;5071667;28;20446;-83
2022/04/08 00:06:58;;;;;;;15.90;2.72;;;;;;;5.52;85.85;99732.69;5072551;28;20052;-82
2022/04/08 00:09:23;;;;;;;9.38;2.10;;;;;;;5.47;86.44;99736.56;5072668;28;20063;-82
2022/04/08 00:11:49;;;;;;;11.43;2.55;;;;;;;5.53;85.67;99747.41;5072396;28;20028;-82
2022/04/08 00:14:14;;;;;;;18.10;2.75;;;;;;;5.53;84.93;99749.16;5072047;28;20032;-82
2022/04/08 00:16:40;;;;;;;13.15;2.42;;;;;;;5.53;85.54;99739.56;5075473;28;20503;-82
2022/04/08 00:19:05;;;;;;;16.30;2.50;;;;;;;5.52;84.76;99761.38;5073816;28;20025;-82
2022/04/08 00:21:31;;;;;;;17.55;2.50;;;;;;;5.54;85.15;99759.50;5070491;28;20048;-82
2022/04/08 00:23:59;;;;;;;12.27;2.33;;;;;;;5.52;85.61;99769.22;5071942;28;20039;-82
2022/04/08 00:26:24;;;;;;;16.20;2.58;;;;;;;5.53;85.48;99765.66;5071644;28;20361;-82
2022/04/08 00:28:50;;;;;;;15.63;2.83;;;;;;;5.53;85.41;99763.03;5054727;28;20036;-82
2022/04/08 00:31:15;;;;;;;16.60;2.80;;;;;;;5.51;86.55;99761.50;5066960;28;20714;-81
2022/04/08 00:33:40;;;;;;;11.10;2.50;;;;;;;5.45;86.11;99762.75;5069829;28;20020;-81
2022/04/08 00:36:06;;;;;;;21.17;2.83;;;;;;;5.44;86.16;99757.66;5070591;28;20028;-81
2022/04/08 00:38:32;;;;;;;16.38;3.08;;;;;;;5.43;85.36;99777.69;5071077;28;20020;-81
2022/04/08 00:40:58;;;;;;;16.98;3.67;;;;;;;5.43;86.28;99769.03;5052214;28;20041;-81
2022/04/08 00:43:37;;;;;;;16.52;2.58;;;;;;;5.42;86.22;99781.22;5070164;28;20498;-82
2022/04/08 00:46:05;;;;;;;16.00;3.20;;;;;;;5.41;86.38;99784.78;5064389;28;20028;-81
2022/04/08 00:48:30;;;;;;;19.15;3.05;;;;;;;5.41;85.81;99787.41;5056288;28;20025;-82
2022/04/08 00:50:59;;;;;;;19.83;3.20;;;;;;;5.42;86.01;99796.88;5062190;28;20081;-81
2022/04/08 00:53:25;;;;;;;12.70;2.78;;;;;;;5.42;85.68;99802.09;5067500;28;20021;-81
2022/04/08 00:55:51;;;;;;;13.88;2.83;;;;;;;5.42;86.45;99801.28;5058129;28;20058;-81
2022/04/08 00:58:17;;;;;;;16.88;3.10;;;;;;;5.37;86.06;99796.38;5070876;28;20078;-82
2022/04/08 01:00:42;;;;;;;17.15;2.63;;;;;;;5.43;85.09;99802.94;5055295;28;20037;-82
2022/04/08 01:03:08;;;;;;;15.80;2.50;;;;;;;5.42;85.15;99802.09;5060027;28;20112;-82
2022/04/08 01:05:33;;;;;;;15.30;2.47;;;;;;;5.42;85.02;99803.88;5065722;28;20063;-82
2022/04/08 01:07:59;;;;;;;16.25;2.90;;;;;;;5.39;84.78;99802.31;5060797;28;20025;-81
2022/04/08 01:10:25;;;;;;;12.68;2.88;;;;;;;5.39;84.51;99810.13;5070066;28;20059;-81
2022/04/08 01:12:51;;;;;;;14.52;3.00;;;;;;;5.36;84.56;99818.19;5071807;28;20472;-82
2022/04/08 01:15:18;;;;;;;16.13;2.90;;;;;;;5.36;84.68;99818.19;5069088;28;20170;-82
2022/04/08 01:17:43;;;;;;;16.95;2.92;;;;;;;5.37;84.28;99830.28;5085940;28;20059;-82
2022/04/08 01:20:09;;;;;;;16.70;2.80;;;;;;;5.34;84.91;99827.88;5089629;28;20397;-81
2022/04/08 01:22:35;;;;;;;17.88;2.55;;;;;;;5.36;84.67;99828.63;5087632;28;20028;-81
2022/04/08 01:25:06;;;;;;;18.25;3.05;;;;;;;5.29;84.48;99827.38;5070812;28;20161;-82
2022/04/08 01:27:32;;;;;;;17.13;3.17;;;;;;;5.35;84.90;99829.56;5071432;28;20025;-82
2022/04/08 01:29:57;;;;;;;15.18;2.17;;;;;;;5.31;84.89;99831.53;5057316;28;20385;-82
2022/04/08 01:32:23;;;;;;;15.40;2.70;;;;;;;5.28;84.17;99842.19;5072536;28;20506;-82
2022/04/08 01:34:50;;;;;;;15.80;2.70;;;;;;;5.27;84.62;99839.69;5064095;28;20033;-82
2022/04/08 01:37:16;;;;;;;17.20;2.97;;;;;;;5.25;85.73;99841.56;5049023;28;20029;-81
2022/04/08 01:39:42;;;;;;;20.80;3.22;;;;;;;5.24;84.75;99851.16;5055579;28;20066;-82
2022/04/08 01:42:08;;;;;;;16.17;2.95;;;;;;;5.21;84.77;99850.53;5064444;28;20087;-82
2022/04/08 01:44:34;;;;;;;18.05;3.20;;;;;;;5.24;85.16;99845.09;5070477;28;20046;-82
2022/04/08 01:47:03;;;;;;;19.15;3.03;;;;;;;5.24;84.86;99845.09;5069212;28;20021;-82
2022/04/08 01:49:28;;;;;;;18.42;3.60;;;;;;;5.22;84.97;99842.59;5069400;28;20031;-82
2022/04/08 01:51:54;;;;;;;19.65;2.83;;;;;;;5.25;85.31;99847.59;5069440;28;20337;-81
2022/04/08 01:54:19;;;;;;;19.17;3.25;;;;;;;5.23;85.55;99848.66;5069025;28;20074;-81
2022/04/08 01:56:45;;;;;;;18.42;2.95;;;;;;;5.22;85.21;99853.03;5055138;28;20020;-82
2022/04/08 01:59:10;;;;;;;15.05;2.70;;;;;;;5.21;85.20;99851.38;5062330;28;20048;-82
2022/04/08 02:01:35;;;;;;;19.92;3.00;;;;;;;5.21;85.29;99861.78;5073281;28;20120;-82
2022/04/08 02:04:01;;;;;;;17.67;2.97;;;;;;;5.20;86.04;99864.47;5060207;28;20072;-82
2022/04/08 02:06:30;;;;;;;14.77;2.65;;;;;;;5.19;85.32;99868.03;5058946;28;20028;-82
2022/04/08 02:08:57;;;;;;;19.23;2.97;;;;;;;5.13;85.22;99863.22;5059695;28;20012;-82
2022/04/08 02:11:22;;;;;;;17.25;3.17;;;;;;;5.09;85.60;99861.75;5053652;28;20025;-81
2022/04/08 02:13:47;;;;;;;18.45;2.78;;;;;;;5.09;85.47;99866.97;5062718;28;20016;-82
2022/04/08 02:16:13;;;;;;;17.23;3.58;;;;;;;5.07;86.31;99874.91;5059222;28;20032;-82
2022/04/08 02:18:38;;;;;;;16.75;2.40;;;;;;;5.02;86.14;99867.41;5052055;28;20470;-82
2022/04/08 02:21:05;;;;;;;16.17;2.50;;;;;;;4.98;85.57;99881.56;5053298;28;20075;-82
2022/04/08 02:23:31;;;;;;;13.88;2.42;;;;;;;4.96;86.77;99877.41;5047676;28;20052;-82
2022/04/08 02:25:59;;;;;;;17.83;2.88;;;;;;;4.91;86.93;99882.91;5069096;28;20635;-82
2022/04/08 02:28:25;;;;;;;15.38;2.60;;;;;;;4.92;86.55;99879.38;5065770;28;20017;-82
2022/04/08 02:30:52;;;;;;;19.40;2.25;;;;;;;4.88;86.60;99885.72;5051668;28;20024;-82
2022/04/08 02:33:19;;;;;;;15.95;2.72;;;;;;;4.85;86.96;99885.09;5069539;28;20058;-82
2022/04/08 02:35:44;;;;;;;17.45;2.78;;;;;;;4.80;87.05;99882.75;5065827;28;20492;-82
2022/04/08 02:38:10;;;;;;;16.20;2.92;;;;;;;4.81;86.61;99888.84;5065583;28;20100;-81
2022/04/08 02:40:35;;;;;;;13.73;2.63;;;;;;;4.80;86.76;99893.19;5053908;28;20385;-82
2022/04/08 02:43:01;;;;;;;16.98;2.72;;;;;;;4.79;87.49;99888.91;5048795;28;20076;-82
2022/04/08 02:45:26;;;;;;;15.82;2.65;;;;;;;4.78;87.30;99897.66;5063473;28;20028;-82
2022/04/08 02:47:52;;;;;;;18.35;2.70;;;;;;;4.75;86.81;99895.25;5069547;28;20029;-82
2022/04/08 02:50:17;;;;;;;14.98;2.80;;;;;;;4.76;87.05;99896.09;5069560;28;20028;-82
2022/04/08 02:52:42;;;;;;;14.00;3.00;;;;;;;4.73;86.37;99895.38;5068295;28;20029;-82
2022/04/08 02:55:08;;;;;;;14.93;2.70;;;;;;;4.69;87.07;99895.66;5065978;28;20465;-82
2022/04/08 02:57:44;;;;;;;12.73;2.40;;;;;;;4.65;86.81;99896.81;5059354;28;20044;-82
2022/04/08 03:00:10;;;;;;;15.00;2.83;;;;;;;4.63;86.45;99898.69;5080941;28;20101;-81
2022/04/08 03:02:38;;;;;;;14.02;2.70;;;;;;;4.59;86.40;99897.22;5071660;28;20032;-82
2022/04/08 03:05:06;;;;;;;13.45;2.38;;;;;;;4.57;87.14;99896.47;5066861;28;20021;-82
2022/04/08 03:07:34;;;;;;;15.60;2.75;;;;;;;4.55;87.07;99898.34;5062654;28;20089;-82
2022/04/08 03:10:05;;;;;;;12.35;2.85;;;;;;;4.51;87.09;99902.06;5065022;28;20021;-82
2022/04/08 03:12:31;;;;;;;15.95;2.78;;;;;;;4.47;86.67;99904.03;5073671;28;20028;-82
2022/04/08 03:14:57;;;;;;;11.60;2.80;;;;;;;4.46;87.28;99904.16;5071491;28;20371;-82
2022/04/08 03:17:22;;;;;;;16.58;2.85;;;;;;;4.40;87.72;99903.59;5075816;28;20014;-82
2022/04/08 03:19:48;;;;;;;14.77;2.78;;;;;;;4.38;87.15;99902.84;5072983;28;20028;-82
2022/04/08 03:22:13;;;;;;;9.63;2.50;;;;;;;4.32;87.13;99905.84;5072296;28;20094;-82
2022/04/08 03:24:38;;;;;;;12.55;2.60;;;;;;;4.25;87.45;99904.56;5073202;28;20108;-81
2022/04/08 03:27:04;;;;;;;8.60;2.70;;;;;;;4.23;88.25;99914.22;5066556;28;20385;-81
2022/04/08 03:29:29;;;;;;;8.95;2.60;;;;;;;4.16;88.30;99918.16;5059499;28;20013;-81
2022/04/08 03:31:55;;;;;;;11.23;2.45;;;;;;;4.17;88.56;99919.00;5059171;28;20025;-82
2022/04/08 03:34:20;;;;;;;13.32;2.90;;;;;;;4.16;88.17;99922.53;5056015;28;20024;-82
2022/04/08 03:36:47;;;;;;;13.63;2.60;;;;;;;4.11;88.35;99919.38;5072265;28;20250;-82
2022/04/08 03:39:13;;;;;;;14.85;2.95;;;;;;;4.06;88.83;99922.25;5071334;28;20082;-82
2022/04/08 03:41:40;;;;;;;12.88;2.80;;;;;;;4.04;88.82;99924.13;5061155;28;20591;-82
2022/04/08 03:44:05;;;;;;;16.50;3.20;;;;;;;4.05;88.39;99920.59;5064992;28;20029;-82
2022/04/08 03:46:31;;;;;;;9.32;2.60;;;;;;;4.01;88.95;99911.31;5072727;28;20112;-82
2022/04/08 03:48:59;;;;;;;12.02;3.08;;;;;;;3.98;88.39;99919.28;5070886;28;20028;-82
2022/04/08 03:51:24;;;;;;;15.98;3.08;;;;;;;3.97;88.86;99925.41;5070909;28;20016;-81
2022/04/08 03:53:50;;;;;;;10.68;2.80;;;;;;;3.95;88.84;99935.09;5059648;28;20082;-81
2022/04/08 03:56:15;;;;;;;11.88;2.50;;;;;;;3.90;88.55;99921.53;5065092;28;20056;-82
2022/04/08 03:58:40;;;;;;;12.57;2.85;;;;;;;3.90;89.29;99944.94;5053178;28;20059;-82
2022/04/08 04:01:06;;;;;;;12.52;3.25;;;;;;;3.85;89.00;99936.56;5067806;28;20044;-82
2022/04/08 04:03:31;;;;;;;9.13;2.72;;;;;;;3.83;88.87;99935.84;5077589;28;20103;-82
2022/04/08 04:05:56;;;;;;;12.48;3.60;;;;;;;3.76;89.53;99936.22;5069533;28;20054;-82
2022/04/08 04:08:22;;;;;;;9.32;2.70;;;;;;;3.76;89.39;99938.81;5055331;28;20044;-82
2022/04/08 04:10:48;;;;;;;11.25;3.22;;;;;;;3.74;89.42;99927.66;5069129;28;20473;-81
2022/04/08 04:13:14;;;;;;;11.73;3.50;;;;;;;3.69;89.25;99921.91;5071929;28;20016;-81
2022/04/08 04:15:39;;;;;;;12.68;3.38;;;;;;;3.70;89.85;99930.56;5059485;28;20024;-81
2022/04/08 04:18:05;;;;;;;14.45;3.47;;;;;;;3.66;89.70;99929.91;5062634;28;20024;-82
2022/04/08 04:20:31;;;;;;;12.15;3.10;;;;;;;3.68;89.25;99933.25;5037446;28;20025;-81
2022/04/08 04:22:56;;;;;;;13.02;3.63;;;;;;;3.66;89.73;99924.69;5072933;28;20206;-81
2022/04/08 04:25:22;;;;;;;14.63;3.75;;;;;;;3.63;90.28;99924.88;5069830;28;20489;-82
2022/04/08 04:27:47;;;;;;;10.75;3.70;;;;;;;3.60;90.27;99913.81;5069666;28;20028;-82
2022/04/08 04:30:12;;;;;;;14.23;3.72;;;;;;;3.60;90.13;99926.81;5058022;28;20032;-81
2022/04/08 04:32:38;;;;;;;9.50;3.63;;;;;;;3.57;90.22;99922.63;5050180;28;20389;-81
2022/04/08 04:35:06;;;;;;;12.82;4.00;;;;;;;3.54;89.90;99930.63;5071293;28;20020;-82
2022/04/08 04:37:38;;;;;;;12.88;4.10;;;;;;;3.49;90.45;99926.63;5071224;28;20142;-82
2022/04/08 04:40:04;;;;;;;11.60;4.20;;;;;;;3.39;90.76;99915.94;5070324;28;20021;-82
2022/04/08 04:42:30;;;;;;;14.00;4.78;;;;;;;3.46;90.97;99938.88;5070377;28;20028;-82
2022/04/08 04:45:00;;;;;;;14.23;4.63;;;;;;;3.45;90.52;99928.56;5070010;28;20705;-82
2022/04/08 04:47:25;;;;;;;11.40;4.43;;;;;;;3.43;91.19;99933.03;5062388;28;20039;-81
2022/04/08 04:49:51;;;;;;;14.98;5.30;;;;;;;3.41;90.79;99932.28;5062906;28;20025;-81
2022/04/08 04:52:16;;;;;;;11.95;5.03;;;;;;;3.45;90.68;99931.16;5055146;28;20099;-82
2022/04/08 04:54:41;;;;;;;13.93;5.45;;;;;;;3.41;90.87;99930.50;5068437;28;20424;-82
2022/04/08 04:57:08;;;;;;;12.90;5.65;;;;;;;3.39;90.90;99926.34;5050608;28;20389;-82
2022/04/08 04:59:34;;;;;;;15.40;5.72;;;;;;;3.39;90.95;99932.38;5059838;28;20028;-82
2022/04/08 05:02:02;;;;;;;19.08;6.55;;;;;;;3.38;91.01;99929.88;5079299;28;20032;-82
2022/04/08 05:04:28;;;;;;;16.55;7.55;;;;;;;3.36;90.97;99926.50;5063773;28;20032;-82
2022/04/08 05:06:53;;;;;;;16.00;6.88;;;;;;;3.35;91.63;99925.69;5069760;28;20074;-81
2022/04/08 05:09:19;;;;;;;15.77;7.30;;;;;;;3.35;91.20;99919.66;5064400;28;20039;-81
2022/04/08 05:11:44;;;;;;;16.50;7.88;;;;;;;3.36;91.63;99916.94;5061325;28;20048;-82
2022/04/08 05:14:13;;;;;;;12.75;7.43;;;;;;;3.36;91.12;99916.13;5054956;28;20024;-82
2022/04/08 05:16:38;;;;;;;16.00;7.65;;;;;;;3.37;91.30;99928.19;5070930;28;20025;-81
2022/04/08 05:19:03;;;;;;;16.73;7.90;;;;;;;3.36;91.70;99922.16;5071107;28;20055;-82
2022/04/08 05:21:29;;;;;;;17.85;7.32;;;;;;;3.35;92.51;99917.03;5069620;28;21042;-81
2022/04/08 05:23:55;;;;;;;14.95;7.68;;;;;;;3.36;91.95;99929.13;5070024;28;20033;-81
2022/04/08 05:26:21;;;;;;;16.95;7.95;;;;;;;3.36;91.16;99932.56;5070089;28;20429;-81
2022/04/08 05:28:46;;;;;;;20.83;8.70;;;;;;;3.36;92.04;99929.13;5068269;28;20104;-81
2022/04/08 05:31:12;;;;;;;17.08;9.38;;;;;;;3.34;91.69;99924.00;5070298;28;20083;-81
2022/04/08 05:33:37;;;;;;;17.88;9.30;;;;;;;3.35;91.92;99924.84;5068715;28;20400;-81
2022/04/08 05:36:03;;;;;;;19.20;10.05;;;;;;;3.35;92.26;99919.66;5069900;28;20099;-81
2022/04/08 05:38:28;;;;;;;16.85;9.75;;;;;;;3.32;92.90;99915.47;5062108;28;20024;-82
2022/04/08 05:40:54;;;;;;;19.83;11.57;;;;;;;3.35;93.00;99919.66;5067551;28;20025;-81
2022/04/08 05:43:19;;;;;;;18.40;11.63;;;;;;;3.37;93.52;99913.44;5065019;28;20080;-81
2022/04/08 05:45:45;;;;;;;21.08;10.95;;;;;;;3.35;93.47;99910.09;5067930;28;20023;-81
2022/04/08 05:48:10;;;;;;;21.48;11.13;;;;;;;3.40;93.68;99922.81;5064187;28;20033;-81
2022/04/08 05:50:35;;;;;;;18.77;11.55;;;;;;;3.42;93.63;99920.94;5058575;28;20043;-81
2022/04/08 05:53:01;;;;;;;19.75;11.60;;;;;;;3.40;93.94;99907.22;5070123;28;20107;-82
2022/04/08 05:55:26;;;;;;;21.73;12.27;;;;;;;3.41;93.86;99903.69;5059028;28;20158;-81
2022/04/08 05:57:56;;;;;;;23.17;12.80;;;;;;;3.42;94.44;99901.00;5068101;28;20068;-82
2022/04/08 06:00:23;;;;;;;18.02;12.60;;;;;;;3.42;94.08;99901.00;5069833;28;20047;-82
2022/04/08 06:02:49;;;;;;;17.10;11.13;;;;;;;3.41;94.31;99894.13;5069475;28;20032;-80
2022/04/08 06:05:18;;;;;;;20.83;12.13;;;;;;;3.46;94.80;99906.84;5074747;28;20423;-82
2022/04/08 06:07:47;;;;;;;18.45;12.00;;;;;;;3.48;94.05;99899.78;5066576;28;20042;-82
2022/04/08 06:10:13;;;;;;;22.83;12.20;;;;;;;3.52;94.21;99905.63;5076323;28;20019;-81
2022/04/08 06:12:39;;;;;;;19.60;11.77;;;;;;;3.54;94.69;99898.56;5078737;28;20016;-81
2022/04/08 06:15:05;;;;;;;19.50;11.40;;;;;;;3.59;94.37;99901.72;5063954;28;20032;-81
2022/04/08 06:17:37;;;;;;;19.23;11.00;;;;;;;3.60;94.48;99901.66;5067698;28;20058;-82
2022/04/08 06:20:07;;;;;;;19.23;11.95;;;;;;;3.65;94.44;99897.00;5067052;28;20023;-82
2022/04/08 06:22:33;;;;;;;20.38;11.48;;;;;;;3.71;93.96;99901.84;5072919;28;20098;-82
2022/04/08 06:24:58;;;;;;;19.73;10.48;;;;;;;3.75;94.25;99902.50;5069032;28;20033;-82
2022/04/08 06:27:23;;;;;;;19.60;10.50;;;;;;;3.77;93.62;99901.47;5053442;28;20028;-82
2022/04/08 06:29:49;;;;;;;14.05;10.05;;;;;;;3.76;93.44;99894.59;5061941;28;20468;-82
2022/04/08 06:32:14;;;;;;;18.65;9.68;;;;;;;3.85;93.10;99894.94;5064432;28;20023;-82
2022/04/08 06:34:40;;;;;;;15.90;9.48;;;;;;;3.91;93.08;99904.97;5052260;28;20413;-82
2022/04/08 06:37:05;;;;;;;18.45;10.10;;;;;;;3.94;92.89;99903.03;5066548;28;20056;-82
2022/04/08 06:39:31;;;;;;;15.52;9.48;;;;;;;4.00;93.14;99897.47;5072787;28;20017;-82
2022/04/08 06:41:57;;;;;;;15.25;9.63;;;;;;;4.08;92.88;99896.97;5056081;28;20111;-82
2022/04/08 06:44:22;;;;;;;15.70;9.43;;;;;;;4.14;93.16;99886.19;5074297;28;20448;-82
2022/04/08 06:46:48;;;;;;;16.35;9.18;;;;;;;4.23;92.72;99887.38;5073398;28;20032;-81
2022/04/08 06:49:14;;;;;;;16.42;8.63;;;;;;;4.30;92.22;99886.88;5072762;28;20020;-82
2022/04/08 06:51:39;;;;;;;16.30;8.57;;;;;;;4.38;92.70;99887.22;5074021;28;20120;-82
2022/04/08 06:54:07;;;;;;;16.88;9.25;;;;;;;4.44;92.30;99886.00;5068493;28;20025;-82
2022/04/08 06:56:33;;;;;;;17.08;8.95;;;;;;;4.44;92.05;99874.75;5061382;28;20035;-82
2022/04/08 06:58:58;;;;;;;13.02;8.40;;;;;;;4.57;91.63;99880.84;5073113;28;20024;-82
2022/04/08 07:01:25;;;;;;;19.10;8.98;;;;;;;4.62;91.62;99876.16;5057236;28;20056;-82
2022/04/08 07:03:54;;;;;;;16.88;8.23;;;;;;;4.68;91.17;99883.56;5047440;28;20025;-82
2022/04/08 07:06:23;;;;;;;11.65;7.82;;;;;;;4.68;90.49;99873.16;5071087;28;20122;-82
2022/04/08 07:08:48;;;;;;;14.05;7.65;;;;;;;4.70;89.99;99877.34;5072985;28;20040;-82
2022/04/08 07:11:14;;;;;;;14.07;7.57;;;;;;;4.83;89.32;99890.41;5072153;28;20020;-82
2022/04/08 07:13:41;;;;;;;12.45;7.25;;;;;;;4.87;89.48;99889.28;5072321;28;20025;-82
2022/04/08 07:16:08;;;;;;;13.82;6.85;;;;;;;4.87;88.55;99871.03;5067241;28;20025;-82
2022/04/08 07:18:34;;;;;;;13.15;6.80;;;;;;;4.93;88.42;99875.84;5070781;28;20020;-82
2022/04/08 07:20:59;;;;;;;11.63;7.00;;;;;;;4.96;88.78;99870.41;5071626;28;20043;-82
2022/04/08 07:23:25;;;;;;;13.07;6.82;;;;;;;5.01;88.54;99865.72;5060550;28;20043;-82
2022/04/08 07:25:50;;;;;;;11.77;6.85;;;;;;;5.04;88.54;99862.06;5066077;28;20020;-82
2022/04/08 07:28:15;;;;;;;14.75;6.95;;;;;;;5.09;88.01;99861.75;5075858;28;20017;-82
2022/04/08 07:30:41;;;;;;;13.30;6.90;;;;;;;5.12;87.86;99861.56;5062231;28;20013;-82
2022/04/08 07:33:06;;;;;;;11.57;6.40;;;;;;;5.21;87.41;99872.22;5063720;28;20027;-82
2022/04/08 07:35:33;;;;;;;11.05;6.18;;;;;;;5.25;87.54;99867.63;5065476;28;20028;-82
2022/04/08 07:38:00;;;;;;;9.82;6.38;;;;;;;5.29;86.74;99856.88;5064774;28;20020;-82
2022/04/08 07:40:29;;;;;;;14.68;5.72;;;;;;;5.33;86.74;99866.16;5054707;28;20033;-82
2022/04/08 07:42:55;;;;;;;11.40;6.13;;;;;;;5.39;86.54;99859.69;5053061;28;20119;-82
2022/04/08 07:45:24;;;;;;;13.48;6.47;;;;;;;5.41;86.39;99868.25;5064318;28;20062;-83
2022/04/08 07:47:49;;;;;;;11.98;6.18;;;;;;;5.46;86.20;99870.53;5073236;28;20020;-83
2022/04/08 07:50:15;;;;;;;11.07;6.10;;;;;;;5.50;85.64;99866.78;5071909;28;20035;-82
2022/04/08 07:52:41;;;;;;;10.38;6.03;;;;;;;5.52;85.62;99860.53;5072524;28;20101;-82
2022/04/08 07:55:08;;;;;;;12.00;6.85;;;;;;;5.58;85.89;99859.25;5053647;28;20017;-82
2022/04/08 07:57:43;;;;;;;10.48;5.85;;;;;;;5.61;85.37;99857.28;5072650;28;20389;-82
2022/04/08 08:00:10;;;;;;;11.95;5.90;;;;;;;5.62;84.60;99845.91;5071877;28;20090;-83
2022/04/08 08:02:39;;;;;;;18.67;6.32;;;;;;;5.69;84.15;99850.72;5054903;28;20037;-83
2022/04/08 08:05:09;;;;;;;14.15;6.05;;;;;;;5.71;84.18;99844.44;5069810;28;20131;-83
2022/04/08 08:07:47;;;;;;;14.48;5.78;;;;;;;5.78;83.84;99847.44;5073059;28;20039;-83
2022/04/08 08:10:18;;;;;;;9.85;5.82;;;;;;;5.81;83.78;99842.00;5071407;28;20051;-82
2022/04/08 08:12:45;;;;;;;10.68;5.32;;;;;;;5.81;83.29;99844.63;5071260;28;20032;-82
2022/04/08 08:15:10;;;;;;;11.77;5.95;;;;;;;5.84;82.98;99840.00;5071639;28;20017;-82
2022/04/08 08:17:39;;;;;;;12.98;5.45;;;;;;;5.90;82.64;99842.22;5068655;28;20441;-83
2022/04/08 08:20:06;;;;;;;12.43;6.00;;;;;;;5.96;83.05;99849.63;5071301;28;20024;-83
2022/04/08 08:22:32;;;;;;;11.45;6.10;;;;;;;5.98;82.64;99849.50;5072164;28;20428;-83
2022/04/08 08:24:57;;;;;;;12.80;6.28;;;;;;;5.99;83.18;99838.13;5062132;28;20032;-83
2022/04/08 08:27:23;;;;;;;15.48;6.13;;;;;;;6.05;82.76;99840.31;5034405;28;20396;-83
2022/04/08 08:29:48;;;;;;;8.88;5.90;;;;;;;6.03;82.61;99829.16;5060445;28;20021;-82
2022/04/08 08:32:13;;;;;;;10.23;5.47;;;;;;;6.14;81.65;99833.59;5072258;28;20043;-82
2022/04/08 08:34:39;;;;;;;10.73;5.55;;;;;;;6.14;80.59;99823.16;5074226;28;20384;-83
2022/04/08 08:37:05;;;;;;;10.05;5.13;;;;;;;6.19;79.63;99832.31;5068742;28;20120;-83
2022/04/08 08:39:30;;;;;;;9.32;5.18;;;;;;;6.23;80.38;99822.47;5065786;28;20432;-85
2022/04/08 08:41:57;;;;;;;10.52;5.40;;;;;;;6.27;80.23;99821.31;5069340;28;20025;-83
2022/04/08 08:44:23;;;;;;;12.05;5.50;;;;;;;6.30;79.43;99813.25;5067030;28;20444;-83
2022/04/08 08:46:50;;;;;;;9.57;4.90;;;;;;;6.37;79.23;99811.84;5072076;28;20021;-81
2022/04/08 08:49:19;;;;;;;9.50;4.78;;;;;;;6.41;79.31;99802.03;5069563;28;20032;-82
2022/04/08 08:51:51;;;;;;;8.88;4.38;;;;;;;6.45;77.92;99808.69;5050122;28;20082;-83
2022/04/08 08:54:23;;;;;;;6.93;4.07;;;;;;;6.47;75.74;99802.41;5062209;28;20502;-83
2022/04/08 08:56:51;;;;;;;8.45;4.20;;;;;;;6.54;77.13;99797.56;5055122;28;20025;-82
2022/04/08 08:59:16;;;;;;;8.27;4.18;;;;;;;6.54;76.14;99776.66;5051740;28;20062;-82
2022/04/08 09:01:42;;;;;;;12.93;4.25;;;;;;;6.61;77.01;99783.09;5062863;28;20053;-82
2022/04/08 09:04:07;;;;;;;8.95;4.30;;;;;;;6.65;75.45;99781.09;5060885;28;20036;-81
2022/04/08 09:06:43;;;;;;;7.07;3.90;;;;;;;6.70;75.01;99785.00;5070589;28;20500;-81
2022/04/08 09:09:11;;;;;;;13.07;4.18;;;;;;;6.74;74.56;99773.38;5068909;28;20039;-81
2022/04/08 09:11:39;;;;;;;6.85;3.75;;;;;;;6.78;73.91;99777.41;5070186;28;20528;-80
2022/04/08 09:14:08;;;;;;;10.85;3.95;;;;;;;6.82;74.03;99781.50;5070680;28;20028;-80
2022/04/08 09:16:39;;;;;;;10.60;3.50;;;;;;;6.82;73.56;99775.44;5060204;28;20394;-82
2022/04/08 09:19:13;;;;;;;7.63;3.53;;;;;;;6.93;73.59;99785.91;5066179;28;20024;-82
2022/04/08 09:21:53;;;;;;;9.10;3.22;;;;;;;6.95;74.62;99777.94;5075305;28;20028;-82
2022/04/08 09:24:23;;;;;;;6.47;3.70;;;;;;;7.02;73.48;99784.38;5063927;28;20032;-82
2022/04/08 09:26:51;;;;;;;9.93;3.70;;;;;;;7.02;72.13;99768.69;5066016;28;20446;-81
2022/04/08 09:29:27;;;;;;;9.27;4.13;;;;;;;7.12;73.20;99777.47;5069090;28;20201;-82
2022/04/08 09:31:55;;;;;;;11.65;3.72;;;;;;;7.12;72.94;99772.25;5061232;28;20602;-82
2022/04/08 09:34:29;;;;;;;10.32;3.85;;;;;;;7.22;72.98;99776.69;5061366;28;20040;-80
2022/04/08 09:36:55;;;;;;;12.45;3.83;;;;;;;7.25;72.46;99783.44;5070481;28;20435;-81
2022/04/08 09:39:21;;;;;;;8.10;3.35;;;;;;;7.26;70.55;99773.81;5057320;28;20059;-82
2022/04/08 09:41:49;;;;;;;11.15;3.35;;;;;;;7.28;70.43;99777.16;5070740;28;20115;-81
2022/04/08 09:44:23;;;;;;;8.90;3.00;;;;;;;7.27;70.78;99771.09;5057052;28;20050;-82
2022/04/08 09:46:48;;;;;;;10.20;3.13;;;;;;;7.36;70.61;99786.06;5083989;28;20067;-80
2022/04/08 09:49:22;;;;;;;7.47;2.85;;;;;;;7.39;69.54;99775.34;5068869;28;20088;-81
2022/04/08 09:51:52;;;;;;;6.20;2.50;;;;;;;7.42;69.76;99780.34;5069487;28;20032;-80
2022/04/08 09:54:23;;;;;;;10.25;2.30;;;;;;;7.42;68.78;99788.19;5070144;28;20035;-81
2022/04/08 09:56:50;;;;;;;6.88;2.63;;;;;;;7.39;69.40;99767.50;5069547;28;20032;-81
2022/04/08 09:59:21;;;;;;;8.68;2.55;;;;;;;7.44;69.34;99775.81;5067024;28;20035;-82
2022/04/08 10:01:47;;;;;;;6.80;2.70;;;;;;;7.46;68.93;99770.47;5067082;28;20032;-80
2022/04/08 10:04:13;;;;;;;12.95;3.10;;;;;;;7.47;68.69;99769.50;5073500;28;20025;-81
2022/04/08 10:06:40;;;;;;;9.55;3.28;;;;;;;7.52;68.70;99776.06;5068925;28;20546;-80
2022/04/08 10:09:09;;;;;;;10.60;3.03;;;;;;;7.53;69.43;99772.47;5074339;28;20028;-80
2022/04/08 10:12:04;;;;;;;12.40;3.10;;;;;;;7.61;70.98;99778.94;5067234;28;20016;-80
2022/04/08 10:14:52;;;;;;;6.65;3.10;;;;;;;7.64;70.74;99779.50;5069816;28;20388;-81
2022/04/08 10:17:17;;;;;;;8.52;2.95;;;;;;;7.68;69.84;99777.47;5069006;28;20028;-83
2022/04/08 10:19:43;;;;;;;6.10;2.70;;;;;;;7.73;69.43;99772.72;5074341;28;20393;-81
2022/04/08 10:22:20;;;;;;;8.43;2.90;;;;;;;7.72;68.42;99765.81;5070607;28;20063;-81
2022/04/08 10:24:59;;;;;;;7.95;2.92;;;;;;;7.81;69.50;99765.91;5068573;28;20046;-81
2022/04/08 10:27:34;;;;;;;7.38;3.10;;;;;;;7.81;69.38;99759.84;5069540;28;20392;-81
2022/04/08 10:29:59;;;;;;;10.43;3.58;;;;;;;7.85;69.65;99758.63;5060732;28;20033;-80
2022/04/08 10:32:38;;;;;;;10.07;3.35;;;;;;;7.97;70.42;99764.66;5068331;28;20613;-80
2022/04/08 10:35:17;;;;;;;6.78;3.22;;;;;;;8.00;70.24;99765.25;5050000;28;20066;-80
2022/04/08 10:37:56;;;;;;;11.05;3.80;;;;;;;7.96;67.96;99763.84;5063674;28;20130;-80
2022/04/08 10:40:21;;;;;;;10.48;3.83;;;;;;;7.91;67.52;99762.53;5080732;28;20034;-82
2022/04/08 10:42:57;;;;;;;6.53;3.60;;;;;;;7.88;67.96;99758.38;5072705;28;20033;-83
2022/04/08 10:45:23;;;;;;;13.68;3.80;;;;;;;7.85;68.21;99758.63;5056812;28;20028;-83
2022/04/08 10:47:49;;;;;;;9.13;3.55;;;;;;;7.86;68.49;99762.91;5052894;28;20033;-83
2022/04/08 10:50:30;;;;;;;9.60;3.30;;;;;;;7.88;68.98;99761.00;5060106;28;20054;-83
2022/04/08 10:53:11;;;;;;;7.85;3.58;;;;;;;7.87;68.13;99756.72;5076508;28;20061;-83
2022/04/08 10:55:50;;;;;;;6.82;3.45;;;;;;;7.84;66.90;99754.34;5069423;28;20116;-83
2022/04/08 10:58:50;;;;;;;;;;;;;;;;;;;;;
2022/04/08 11:01:24;;;;;;;8.93;3.20;;;;;;;7.78;67.54;99763.53;5068358;28;20071;-83
2022/04/08 11:03:53;;;;;;;6.82;3.00;;;;;;;7.76;67.61;99762.81;5074742;28;20479;-83
2022/04/08 11:06:19;;;;;;;12.43;3.55;;;;;;;7.79;67.45;99761.75;5065791;28;20048;-83
2022/04/08 11:08:45;;;;;;;7.43;3.22;;;;;;;7.78;67.65;99750.44;5057431;28;20060;-83
2022/04/08 11:11:11;;;;;;;6.88;2.90;;;;;;;7.79;67.33;99746.03;5066470;28;20078;-83
2022/04/08 11:13:41;;;;;;;10.90;3.22;;;;;;;7.81;67.81;99738.88;5054513;28;20028;-83
2022/04/08 11:16:06;;;;;;;8.95;3.42;;;;;;;7.83;67.14;99739.59;5058523;28;20104;-83
2022/04/08 11:18:31;;;;;;;8.45;2.90;;;;;;;7.85;67.25;99735.06;5057673;28;20107;-83
2022/04/08 11:20:57;;;;;;;9.55;3.35;;;;;;;7.90;67.57;99743.38;5066736;28;20100;-83
2022/04/08 11:23:34;;;;;;;7.00;2.92;;;;;;;7.93;67.74;99737.88;5064373;28;20055;-82
2022/04/08 11:26:10;;;;;;;10.35;3.83;;;;;;;7.86;67.36;99721.00;5064854;28;20099;-83
2022/04/08 11:28:35;;;;;;;9.80;3.08;;;;;;;7.93;67.79;99726.59;5060969;28;20027;-83
2022/04/08 11:31:01;;;;;;;8.85;3.17;;;;;;;7.98;67.91;99727.88;5070120;28;20112;-83
2022/04/08 11:33:30;;;;;;;11.38;3.40;;;;;;;7.97;67.05;99718.34;5075151;28;20385;-83
2022/04/08 11:35:58;;;;;;;7.43;2.80;;;;;;;7.97;66.68;99701.81;5064846;28;20116;-83
2022/04/08 11:38:27;;;;;;;9.00;3.10;;;;;;;8.00;65.89;99707.63;5035547;28;20362;-83